Terminal Aerodrome Forecast
Issued by NWS

Home | Current Version | Previous Version | Text Only | Print | Product List | Glossary On
Versions: 1 2 3 4 5 6 7 8 9 10 11 12 13 14 15 16 17 18
000
FTUS45 KBOU 240535
TAFBJC
TAF
KBJC 240535Z 2406/2506 34011KT P6SM VCSH BKN100
     FM241100 02012KT P6SM SCT010 OVC020
     FM241400 03010KT P6SM VCSH SCT007 BKN012 OVC020
     FM241900 04009KT P6SM VCSH SCT015 BKN025
     FM242100 03011KT P6SM SCT025 BKN040
     FM250100 VRB05KT P6SM SCT020 BKN030=

USA.gov is the U.S. government's official web portal to all federal, state and local government web resources and services.